createdAt,value
2022-12-15T00:00:07.156Z,34.50
2022-12-15T00:05:28.124Z,33.80
2022-12-15T00:10:48.709Z,32.60
2022-12-15T00:16:10.574Z,36.90
2022-12-15T00:21:32.547Z,35.60
2022-12-15T00:26:53.145Z,34.40
2022-12-15T00:32:14.265Z,33.90
2022-12-15T00:37:34.894Z,35.80
2022-12-15T00:42:36.670Z,36.10
2022-12-15T00:47:38.511Z,31.90
2022-12-15T00:52:59.246Z,29.30
2022-12-15T00:58:19.636Z,30.80
2022-12-15T01:03:42.647Z,30.30
2022-12-15T01:09:03.589Z,26.00
2022-12-15T01:14:24.197Z,26.70
2022-12-15T01:19:44.828Z,24.80
2022-12-15T01:24:46.759Z,23.30
2022-12-15T01:29:48.523Z,25.60
2022-12-15T01:34:50.285Z,24.10
2022-12-15T01:40:10.845Z,27.70
2022-12-15T01:45:24.691Z,26.40
2022-12-15T01:50:28.797Z,24.30
2022-12-15T01:55:32.141Z,24.00
2022-12-15T02:00:34.551Z,21.20
2022-12-15T02:05:36.992Z,31.00
2022-12-15T02:11:13.527Z,25.20
2022-12-15T02:16:28.326Z,22.90
2022-12-15T02:21:42.191Z,27.00
2022-12-15T02:26:53.015Z,25.30
2022-12-15T02:32:07.806Z,29.20
2022-12-15T02:37:23.082Z,22.40
2022-12-15T02:42:28.316Z,22.70
2022-12-15T02:47:54.869Z,22.90
2022-12-15T02:53:24.485Z,29.30
2022-12-15T02:58:45.735Z,29.20
2022-12-15T03:03:49.947Z,33.60
2022-12-15T03:08:51.690Z,32.20
2022-12-15T03:13:54.339Z,28.90
2022-12-15T03:18:56.059Z,29.10
2022-12-15T03:23:57.905Z,29.00
2022-12-15T03:29:00.494Z,32.60
2022-12-15T03:34:02.350Z,32.10
2022-12-15T03:39:04.640Z,28.60
2022-12-15T03:44:06.474Z,30.50
2022-12-15T03:49:08.286Z,35.70
2022-12-15T03:54:12.551Z,29.70
2022-12-15T03:59:14.396Z,28.50
2022-12-15T04:04:16.225Z,29.70
2022-12-15T04:09:19.453Z,28.80
2022-12-15T04:14:32.613Z,29.40
2022-12-15T04:19:53.249Z,29.60
2022-12-15T04:25:13.687Z,29.90
2022-12-15T04:30:34.507Z,30.10
2022-12-15T04:35:55.160Z,26.20
2022-12-15T04:41:15.782Z,32.20
2022-12-15T04:46:36.409Z,31.00
2022-12-15T04:51:57.041Z,34.80
2022-12-15T04:57:17.627Z,35.90
2022-12-15T05:02:38.329Z,28.60
2022-12-15T05:07:59.103Z,29.80
2022-12-15T05:13:24.900Z,32.60
2022-12-15T05:18:45.281Z,36.10
2022-12-15T05:24:05.820Z,29.90
2022-12-15T05:29:26.411Z,32.30
2022-12-15T05:34:31.174Z,36.90
2022-12-15T05:39:33.152Z,40.00
2022-12-15T05:44:34.943Z,40.20
2022-12-15T05:49:36.768Z,38.10
2022-12-15T05:54:38.531Z,43.40
2022-12-15T05:59:40.323Z,40.60
2022-12-15T06:04:42.092Z,43.10
2022-12-15T06:09:43.933Z,39.10
2022-12-15T06:14:45.726Z,41.20
2022-12-15T06:19:51.566Z,39.30
2022-12-15T06:24:53.340Z,32.40
2022-12-15T06:29:55.186Z,43.00
2022-12-15T06:34:57.423Z,41.80
2022-12-15T06:39:59.175Z,40.50
2022-12-15T06:45:00.892Z,45.10
2022-12-15T06:50:02.755Z,39.90
2022-12-15T06:55:04.926Z,40.60
2022-12-15T07:00:07.540Z,46.10
2022-12-15T07:05:09.535Z,48.60
2022-12-15T07:10:11.967Z,45.30
2022-12-15T07:15:13.785Z,47.20
2022-12-15T07:20:15.574Z,40.20
2022-12-15T07:25:17.751Z,44.30
2022-12-15T07:30:19.536Z,48.80
2022-12-15T07:35:21.884Z,40.80
2022-12-15T07:40:23.794Z,43.50
2022-12-15T07:45:25.672Z,47.40
2022-12-15T07:50:29.060Z,49.30
2022-12-15T07:55:57.104Z,46.30
2022-12-15T08:00:53.363Z,47.40
2022-12-15T08:06:02.038Z,48.40
2022-12-15T08:11:11.239Z,48.20
2022-12-15T08:16:13.081Z,51.50
2022-12-15T08:21:15.030Z,50.60
2022-12-15T08:26:18.743Z,53.60
2022-12-15T08:31:22.597Z,51.60
2022-12-15T08:36:24.468Z,51.80
2022-12-15T08:41:32.465Z,55.60
2022-12-15T08:46:34.763Z,50.00
2022-12-15T08:51:36.871Z,46.20
2022-12-15T08:56:38.799Z,45.20
2022-12-15T09:01:41.808Z,51.10
2022-12-15T09:06:44.256Z,51.00
2022-12-15T09:11:50.362Z,47.40
2022-12-15T09:16:52.240Z,48.60
2022-12-15T09:21:54.120Z,50.20
2022-12-15T09:26:56.464Z,52.00
2022-12-15T09:31:58.271Z,57.80
2022-12-15T09:37:00.268Z,55.50
2022-12-15T09:42:02.232Z,52.30
2022-12-15T09:47:17.418Z,54.00
2022-12-15T09:52:25.164Z,48.60
2022-12-15T09:57:54.298Z,39.10
2022-12-15T10:03:05.118Z,40.60
2022-12-15T10:08:07.036Z,44.80
2022-12-15T10:13:24.905Z,46.10
2022-12-15T10:18:42.532Z,39.70
2022-12-15T10:23:44.422Z,33.30
2022-12-15T10:29:02.464Z,40.50
2022-12-15T10:34:18.992Z,35.70
2022-12-15T10:39:21.853Z,30.90
2022-12-15T10:44:31.857Z,33.80
2022-12-15T10:49:34.235Z,38.70
2022-12-15T10:54:43.621Z,35.50
2022-12-15T10:59:45.436Z,33.90
2022-12-15T11:05:01.275Z,37.60
2022-12-15T11:10:19.941Z,37.20
2022-12-15T11:15:21.672Z,32.20
2022-12-15T11:20:31.761Z,32.10
2022-12-15T11:25:42.158Z,31.30
2022-12-15T11:30:52.342Z,33.90
2022-12-15T11:36:22.522Z,28.10
2022-12-15T11:41:42.656Z,26.10
2022-12-15T11:46:55.110Z,27.30
2022-12-15T11:52:23.876Z,26.90
2022-12-15T11:57:25.568Z,23.90
2022-12-15T12:02:43.871Z,28.60
2022-12-15T12:08:01.031Z,27.60
2022-12-15T12:13:14.840Z,36.40
2022-12-15T12:18:31.325Z,38.60
2022-12-15T12:23:50.378Z,41.80
2022-12-15T12:29:04.165Z,37.50
2022-12-15T12:34:14.195Z,41.00
2022-12-15T12:39:23.207Z,42.50
2022-12-15T12:44:39.703Z,44.40
2022-12-15T12:49:50.261Z,45.00
2022-12-15T12:54:57.758Z,37.00
2022-12-15T13:00:12.325Z,44.30
2022-12-15T13:05:30.916Z,42.00
2022-12-15T13:10:41.806Z,39.70
2022-12-15T13:15:49.152Z,42.00
2022-12-15T13:20:58.020Z,48.40
2022-12-15T13:26:00.860Z,42.90
2022-12-15T13:31:18.785Z,45.40
2022-12-15T13:36:39.710Z,34.00
2022-12-15T13:42:15.399Z,38.60
2022-12-15T13:47:18.840Z,37.50
2022-12-15T13:52:38.100Z,42.70
2022-12-15T13:57:56.858Z,41.20
2022-12-15T14:03:12.260Z,46.00
2022-12-15T14:08:17.125Z,47.90
2022-12-15T14:13:21.529Z,42.50
2022-12-15T14:18:23.427Z,42.30
2022-12-15T14:23:29.995Z,48.40
2022-12-15T14:28:37.157Z,45.40
2022-12-15T14:33:42.092Z,48.90
2022-12-15T14:39:06.444Z,49.00
2022-12-15T14:44:37.438Z,49.60
2022-12-15T14:49:42.761Z,55.10
2022-12-15T15:00:30.506Z,54.60
2022-12-15T15:05:33.173Z,75.60
2022-12-15T15:10:35.057Z,78.40
2022-12-15T15:15:36.870Z,70.40
2022-12-15T15:20:38.755Z,64.10
2022-12-15T15:25:49.072Z,69.70
2022-12-15T15:36:00.755Z,60.10
2022-12-15T15:41:17.921Z,61.50
2022-12-15T15:46:22.793Z,48.80
2022-12-15T15:51:26.267Z,49.70
2022-12-15T15:56:30.873Z,55.80
2022-12-15T16:01:32.891Z,69.60
2022-12-15T16:06:36.327Z,87.90
2022-12-15T16:11:38.263Z,88.80
2022-12-15T16:16:40.268Z,61.10
2022-12-15T16:21:43.015Z,56.50
2022-12-15T16:26:48.632Z,67.50
2022-12-15T16:31:50.601Z,56.50
2022-12-15T16:36:52.560Z,62.90
2022-12-15T16:41:56.230Z,54.40
2022-12-15T16:46:58.899Z,65.00
2022-12-15T16:52:01.164Z,65.20
2022-12-15T16:57:03.754Z,61.70
2022-12-15T17:02:37.504Z,77.60
2022-12-15T17:07:42.020Z,86.30
2022-12-15T17:12:44.929Z,82.10
2022-12-15T17:17:47.084Z,81.10
2022-12-15T17:22:53.385Z,67.30
2022-12-15T17:27:56.381Z,54.60
2022-12-15T17:32:58.664Z,57.10
2022-12-15T17:38:00.611Z,57.00
2022-12-15T17:43:02.379Z,50.90
2022-12-15T17:48:05.569Z,51.40
2022-12-15T17:53:10.138Z,52.10
2022-12-15T17:58:22.047Z,48.10
2022-12-15T18:03:24.451Z,59.30
2022-12-15T18:08:28.179Z,60.10
2022-12-15T18:13:35.290Z,57.30
2022-12-15T18:18:39.816Z,50.30
2022-12-15T18:23:42.134Z,61.20
2022-12-15T18:28:44.334Z,50.60
2022-12-15T18:33:46.466Z,56.30
2022-12-15T18:38:48.651Z,42.70
2022-12-15T18:43:58.571Z,54.40
2022-12-15T18:49:01.488Z,49.60
2022-12-15T18:54:03.970Z,46.70
2022-12-15T18:59:10.625Z,52.40
2022-12-15T19:04:14.507Z,54.20
2022-12-15T19:09:22.905Z,46.00
2022-12-15T19:14:43.474Z,56.60
2022-12-15T19:20:03.914Z,56.50
2022-12-15T19:25:07.307Z,46.40
2022-12-15T19:30:18.535Z,59.10
2022-12-15T19:35:20.707Z,53.00
2022-12-15T19:40:30.472Z,61.50
2022-12-15T19:45:34.098Z,52.40
2022-12-15T19:50:37.724Z,55.00
2022-12-15T19:55:40.614Z,42.00
2022-12-15T20:00:42.499Z,43.10
2022-12-15T20:05:46.795Z,46.90
2022-12-15T20:10:49.845Z,43.50
2022-12-15T20:15:51.773Z,43.80
2022-12-15T20:20:53.741Z,47.10
2022-12-15T20:25:56.366Z,46.60
2022-12-15T20:30:58.871Z,46.40
2022-12-15T20:36:00.684Z,52.70
2022-12-15T20:41:04.274Z,45.30
2022-12-15T20:46:11.205Z,54.90
2022-12-15T20:51:20.796Z,48.90
2022-12-15T20:56:23.934Z,49.70
2022-12-15T21:01:31.808Z,47.70
2022-12-15T21:06:33.736Z,47.10
2022-12-15T21:11:35.530Z,60.00
2022-12-15T21:16:37.305Z,47.00
2022-12-15T21:21:44.319Z,40.10
2022-12-15T21:26:46.768Z,33.10
2022-12-15T21:31:49.158Z,26.60
2022-12-15T21:36:55.043Z,30.40
2022-12-15T21:42:04.957Z,24.40
2022-12-15T21:47:52.049Z,27.90
2022-12-15T21:52:54.336Z,26.80
2022-12-15T21:57:57.570Z,20.20
2022-12-15T22:02:59.400Z,21.60
2022-12-15T22:08:13.084Z,21.60
2022-12-15T22:13:21.212Z,21.50
2022-12-15T22:18:23.703Z,22.60
2022-12-15T22:23:25.488Z,23.10
2022-12-15T22:28:28.560Z,20.70
2022-12-15T22:33:31.662Z,22.70
2022-12-15T22:38:33.793Z,23.30
2022-12-15T22:43:41.676Z,26.70
2022-12-15T22:48:51.926Z,27.10
2022-12-15T22:53:53.702Z,30.00
2022-12-15T22:59:05.836Z,31.40
2022-12-15T23:04:07.705Z,27.00
2022-12-15T23:09:10.120Z,22.30
2022-12-15T23:14:18.043Z,25.00
2022-12-15T23:19:28.773Z,28.20
2022-12-15T23:24:31.363Z,22.40
2022-12-15T23:29:33.077Z,25.20
2022-12-15T23:34:34.933Z,24.10
2022-12-15T23:39:36.667Z,26.10
2022-12-15T23:44:38.620Z,24.40
2022-12-15T23:49:40.437Z,18.70
2022-12-15T23:54:42.210Z,22.90
2022-12-15T23:59:44.218Z,21.60
